sensor_id;sensor_type;location;lat;lon;timestamp;P1;durP1;ratioP1;P2;durP2;ratioP2
56824;SDS011;42705;50.326;18.772;2024-03-23T00:54:10;40.70;;;22.00;;
56824;SDS011;42705;50.326;18.772;2024-03-23T00:59:32;39.00;;;21.70;;
56824;SDS011;42705;50.326;18.772;2024-03-23T01:04:54;42.80;;;22.60;;
56824;SDS011;42705;50.326;18.772;2024-03-23T01:10:16;42.50;;;21.90;;
56824;SDS011;42705;50.326;18.772;2024-03-23T01:15:38;33.50;;;18.60;;
56824;SDS011;42705;50.326;18.772;2024-03-23T01:21:00;35.00;;;18.10;;
56824;SDS011;42705;50.326;18.772;2024-03-23T01:26:21;36.80;;;18.40;;
56824;SDS011;42705;50.326;18.772;2024-03-23T01:31:43;32.40;;;17.60;;
56824;SDS011;42705;50.326;18.772;2024-03-23T01:37:05;34.10;;;18.00;;
56824;SDS011;42705;50.326;18.772;2024-03-23T01:42:27;38.20;;;21.50;;
56824;SDS011;42705;50.326;18.772;2024-03-23T01:47:50;45.00;;;23.10;;
56824;SDS011;42705;50.326;18.772;2024-03-23T01:53:14;46.20;;;22.70;;
56824;SDS011;42705;50.326;18.772;2024-03-23T01:58:38;47.00;;;23.50;;
56824;SDS011;42705;50.326;18.772;2024-03-23T02:04:01;43.10;;;22.30;;
56824;SDS011;42705;50.326;18.772;2024-03-23T02:09:23;39.20;;;20.80;;
56824;SDS011;42705;50.326;18.772;2024-03-23T02:14:45;37.60;;;20.80;;
56824;SDS011;42705;50.326;18.772;2024-03-23T02:20:07;36.70;;;20.30;;
56824;SDS011;42705;50.326;18.772;2024-03-23T02:25:29;39.20;;;20.30;;
56824;SDS011;42705;50.326;18.772;2024-03-23T02:30:51;39.50;;;20.40;;
56824;SDS011;42705;50.326;18.772;2024-03-23T02:41:36;36.90;;;20.60;;
56824;SDS011;42705;50.326;18.772;2024-03-23T02:46:58;41.30;;;20.70;;
56824;SDS011;42705;50.326;18.772;2024-03-23T02:52:20;37.40;;;19.70;;
56824;SDS011;42705;50.326;18.772;2024-03-23T02:57:41;31.50;;;18.30;;
56824;SDS011;42705;50.326;18.772;2024-03-23T03:03:04;39.10;;;18.90;;
56824;SDS011;42705;50.326;18.772;2024-03-23T03:08:26;35.70;;;19.30;;
56824;SDS011;42705;50.326;18.772;2024-03-23T03:13:48;32.30;;;17.10;;
56824;SDS011;42705;50.326;18.772;2024-03-23T03:19:09;33.30;;;17.70;;
56824;SDS011;42705;50.326;18.772;2024-03-23T03:24:32;28.40;;;17.10;;
56824;SDS011;42705;50.326;18.772;2024-03-23T03:29:54;33.30;;;18.30;;
56824;SDS011;42705;50.326;18.772;2024-03-23T03:35:16;35.90;;;19.10;;
56824;SDS011;42705;50.326;18.772;2024-03-23T03:40:38;29.70;;;17.30;;
56824;SDS011;42705;50.326;18.772;2024-03-23T03:46:00;31.40;;;15.20;;
56824;SDS011;42705;50.326;18.772;2024-03-23T03:51:22;31.20;;;16.80;;
56824;SDS011;42705;50.326;18.772;2024-03-23T03:56:44;31.40;;;16.70;;
56824;SDS011;42705;50.326;18.772;2024-03-23T04:02:06;27.00;;;16.00;;
56824;SDS011;42705;50.326;18.772;2024-03-23T04:07:27;30.70;;;16.70;;
56824;SDS011;42705;50.326;18.772;2024-03-23T04:12:50;32.00;;;17.60;;
56824;SDS011;42705;50.326;18.772;2024-03-23T04:18:12;39.10;;;21.90;;
56824;SDS011;42705;50.326;18.772;2024-03-23T04:23:34;51.30;;;26.00;;
56824;SDS011;42705;50.326;18.772;2024-03-23T04:28:56;51.80;;;27.40;;
56824;SDS011;42705;50.326;18.772;2024-03-23T04:34:18;42.40;;;23.90;;
56824;SDS011;42705;50.326;18.772;2024-03-23T04:39:40;29.40;;;17.80;;
56824;SDS011;42705;50.326;18.772;2024-03-23T04:45:04;34.10;;;18.30;;
56824;SDS011;42705;50.326;18.772;2024-03-23T04:50:27;41.20;;;21.40;;
56824;SDS011;42705;50.326;18.772;2024-03-23T04:55:50;45.80;;;23.20;;
56824;SDS011;42705;50.326;18.772;2024-03-23T05:01:13;40.70;;;21.30;;
56824;SDS011;42705;50.326;18.772;2024-03-23T05:06:35;37.40;;;20.90;;
56824;SDS011;42705;50.326;18.772;2024-03-23T05:11:57;35.90;;;20.90;;
56824;SDS011;42705;50.326;18.772;2024-03-23T05:17:19;35.20;;;18.80;;
56824;SDS011;42705;50.326;18.772;2024-03-23T05:22:41;34.80;;;19.30;;
56824;SDS011;42705;50.326;18.772;2024-03-23T05:28:04;31.50;;;17.70;;
56824;SDS011;42705;50.326;18.772;2024-03-23T05:33:26;33.00;;;18.20;;
56824;SDS011;42705;50.326;18.772;2024-03-23T05:38:48;29.90;;;18.10;;
56824;SDS011;42705;50.326;18.772;2024-03-23T05:44:10;31.10;;;17.00;;
56824;SDS011;42705;50.326;18.772;2024-03-23T05:49:32;28.40;;;16.10;;
56824;SDS011;42705;50.326;18.772;2024-03-23T05:54:54;30.20;;;16.20;;
56824;SDS011;42705;50.326;18.772;2024-03-23T06:00:16;25.20;;;14.70;;
56824;SDS011;42705;50.326;18.772;2024-03-23T06:05:39;28.20;;;16.50;;
56824;SDS011;42705;50.326;18.772;2024-03-23T06:11:01;27.10;;;15.50;;
56824;SDS011;42705;50.326;18.772;2024-03-23T06:16:23;29.50;;;16.80;;
56824;SDS011;42705;50.326;18.772;2024-03-23T06:21:45;27.20;;;15.30;;
56824;SDS011;42705;50.326;18.772;2024-03-23T06:27:07;32.40;;;16.50;;
56824;SDS011;42705;50.326;18.772;2024-03-23T06:32:29;24.40;;;14.60;;
56824;SDS011;42705;50.326;18.772;2024-03-23T06:37:50;26.70;;;15.10;;
56824;SDS011;42705;50.326;18.772;2024-03-23T06:43:13;26.60;;;15.00;;
56824;SDS011;42705;50.326;18.772;2024-03-23T06:48:35;26.30;;;15.90;;
56824;SDS011;42705;50.326;18.772;2024-03-23T06:53:57;26.10;;;15.00;;
56824;SDS011;42705;50.326;18.772;2024-03-23T06:59:18;29.20;;;15.80;;
56824;SDS011;42705;50.326;18.772;2024-03-23T07:04:40;27.90;;;16.40;;
56824;SDS011;42705;50.326;18.772;2024-03-23T07:10:02;24.30;;;14.60;;
56824;SDS011;42705;50.326;18.772;2024-03-23T07:15:24;25.40;;;14.70;;
56824;SDS011;42705;50.326;18.772;2024-03-23T07:20:55;25.20;;;14.00;;
56824;SDS011;42705;50.326;18.772;2024-03-23T07:26:18;24.80;;;14.50;;
56824;SDS011;42705;50.326;18.772;2024-03-23T07:31:40;25.10;;;14.10;;
56824;SDS011;42705;50.326;18.772;2024-03-23T07:37:03;21.10;;;13.30;;
56824;SDS011;42705;50.326;18.772;2024-03-23T07:42:25;25.10;;;15.60;;
56824;SDS011;42705;50.326;18.772;2024-03-23T07:47:47;20.20;;;12.10;;
56824;SDS011;42705;50.326;18.772;2024-03-23T07:58:32;18.90;;;9.00;;
56824;SDS011;42705;50.326;18.772;2024-03-23T08:03:55;16.80;;;9.80;;
56824;SDS011;42705;50.326;18.772;2024-03-23T08:09:17;13.60;;;7.80;;
56824;SDS011;42705;50.326;18.772;2024-03-23T08:14:40;14.70;;;8.80;;
56824;SDS011;42705;50.326;18.772;2024-03-23T08:20:02;13.00;;;8.20;;
56824;SDS011;42705;50.326;18.772;2024-03-23T08:25:25;12.90;;;7.30;;
56824;SDS011;42705;50.326;18.772;2024-03-23T08:30:47;14.20;;;7.20;;
56824;SDS011;42705;50.326;18.772;2024-03-23T08:36:09;16.20;;;7.50;;
56824;SDS011;42705;50.326;18.772;2024-03-23T08:41:33;11.80;;;6.10;;
56824;SDS011;42705;50.326;18.772;2024-03-23T08:46:55;11.30;;;6.00;;
56824;SDS011;42705;50.326;18.772;2024-03-23T08:52:17;13.20;;;5.80;;
56824;SDS011;42705;50.326;18.772;2024-03-23T08:57:39;10.30;;;6.30;;
56824;SDS011;42705;50.326;18.772;2024-03-23T09:03:01;8.80;;;6.70;;
56824;SDS011;42705;50.326;18.772;2024-03-23T09:08:24;10.60;;;6.20;;
56824;SDS011;42705;50.326;18.772;2024-03-23T09:13:46;13.50;;;7.50;;
56824;SDS011;42705;50.326;18.772;2024-03-23T09:19:08;11.60;;;6.70;;
56824;SDS011;42705;50.326;18.772;2024-03-23T09:24:30;12.30;;;6.80;;
56824;SDS011;42705;50.326;18.772;2024-03-23T09:29:53;11.20;;;6.10;;
56824;SDS011;42705;50.326;18.772;2024-03-23T09:35:15;10.60;;;6.30;;
56824;SDS011;42705;50.326;18.772;2024-03-23T09:40:40;12.80;;;6.50;;
56824;SDS011;42705;50.326;18.772;2024-03-23T09:46:05;11.90;;;6.50;;
56824;SDS011;42705;50.326;18.772;2024-03-23T09:51:27;12.70;;;6.70;;
56824;SDS011;42705;50.326;18.772;2024-03-23T09:56:49;13.20;;;7.20;;
56824;SDS011;42705;50.326;18.772;2024-03-23T10:02:11;10.00;;;5.60;;
56824;SDS011;42705;50.326;18.772;2024-03-23T10:07:38;11.30;;;6.70;;
56824;SDS011;42705;50.326;18.772;2024-03-23T10:13:00;11.00;;;5.90;;
56824;SDS011;42705;50.326;18.772;2024-03-23T10:18:21;11.70;;;6.50;;
56824;SDS011;42705;50.326;18.772;2024-03-23T10:23:44;11.60;;;6.20;;
56824;SDS011;42705;50.326;18.772;2024-03-23T10:29:07;12.10;;;6.60;;
56824;SDS011;42705;50.326;18.772;2024-03-23T10:34:32;11.10;;;6.50;;
56824;SDS011;42705;50.326;18.772;2024-03-23T10:39:54;11.80;;;6.70;;
56824;SDS011;42705;50.326;18.772;2024-03-23T10:45:16;7.50;;;4.90;;
56824;SDS011;42705;50.326;18.772;2024-03-23T10:50:37;8.20;;;4.90;;
56824;SDS011;42705;50.326;18.772;2024-03-23T10:55:59;10.30;;;5.40;;
56824;SDS011;42705;50.326;18.772;2024-03-23T11:01:21;7.40;;;4.30;;
56824;SDS011;42705;50.326;18.772;2024-03-23T11:06:43;6.60;;;4.40;;
56824;SDS011;42705;50.326;18.772;2024-03-23T11:18:01;7.00;;;3.40;;
56824;SDS011;42705;50.326;18.772;2024-03-23T11:23:28;5.40;;;3.40;;
56824;SDS011;42705;50.326;18.772;2024-03-23T11:28:50;5.30;;;3.40;;
56824;SDS011;42705;50.326;18.772;2024-03-23T11:34:12;4.80;;;3.00;;
56824;SDS011;42705;50.326;18.772;2024-03-23T11:39:34;7.50;;;3.30;;
56824;SDS011;42705;50.326;18.772;2024-03-23T11:45:08;6.00;;;2.70;;
56824;SDS011;42705;50.326;18.772;2024-03-23T11:50:30;8.70;;;2.40;;
56824;SDS011;42705;50.326;18.772;2024-03-23T11:55:55;3.90;;;2.30;;
56824;SDS011;42705;50.326;18.772;2024-03-23T12:01:17;3.50;;;2.20;;
56824;SDS011;42705;50.326;18.772;2024-03-23T12:06:39;6.00;;;2.00;;
56824;SDS011;42705;50.326;18.772;2024-03-23T12:12:10;7.10;;;1.90;;
56824;SDS011;42705;50.326;18.772;2024-03-23T12:17:40;5.50;;;1.90;;
56824;SDS011;42705;50.326;18.772;2024-03-23T12:23:05;2.60;;;1.80;;
56824;SDS011;42705;50.326;18.772;2024-03-23T12:28:32;2.90;;;1.90;;
56824;SDS011;42705;50.326;18.772;2024-03-23T12:33:54;4.00;;;2.30;;
56824;SDS011;42705;50.326;18.772;2024-03-23T12:39:16;5.90;;;2.20;;
56824;SDS011;42705;50.326;18.772;2024-03-23T12:44:38;4.10;;;1.70;;
56824;SDS011;42705;50.326;18.772;2024-03-23T12:55:21;3.20;;;1.80;;
56824;SDS011;42705;50.326;18.772;2024-03-23T13:00:43;6.90;;;2.10;;
56824;SDS011;42705;50.326;18.772;2024-03-23T13:06:05;5.00;;;1.80;;
56824;SDS011;42705;50.326;18.772;2024-03-23T13:11:29;2.70;;;1.50;;
56824;SDS011;42705;50.326;18.772;2024-03-23T13:16:51;1.70;;;1.40;;
56824;SDS011;42705;50.326;18.772;2024-03-23T13:22:13;3.80;;;1.50;;
56824;SDS011;42705;50.326;18.772;2024-03-23T13:27:35;4.10;;;1.40;;
56824;SDS011;42705;50.326;18.772;2024-03-23T13:38:19;3.60;;;0.80;;
56824;SDS011;42705;50.326;18.772;2024-03-23T13:43:42;4.10;;;0.70;;
56824;SDS011;42705;50.326;18.772;2024-03-23T13:49:05;1.50;;;0.40;;
56824;SDS011;42705;50.326;18.772;2024-03-23T13:54:27;2.00;;;0.50;;
56824;SDS011;42705;50.326;18.772;2024-03-23T13:59:49;2.90;;;0.60;;
56824;SDS011;42705;50.326;18.772;2024-03-23T14:05:11;4.10;;;0.90;;
56824;SDS011;42705;50.326;18.772;2024-03-23T14:10:33;2.40;;;0.70;;
56824;SDS011;42705;50.326;18.772;2024-03-23T14:15:55;4.30;;;0.70;;
56824;SDS011;42705;50.326;18.772;2024-03-23T14:21:17;1.00;;;0.80;;
56824;SDS011;42705;50.326;18.772;2024-03-23T14:26:40;3.00;;;1.20;;
56824;SDS011;42705;50.326;18.772;2024-03-23T14:32:02;3.60;;;1.40;;
56824;SDS011;42705;50.326;18.772;2024-03-23T14:37:25;4.20;;;1.20;;
56824;SDS011;42705;50.326;18.772;2024-03-23T14:42:49;1.20;;;0.80;;
56824;SDS011;42705;50.326;18.772;2024-03-23T14:48:10;2.60;;;1.00;;
56824;SDS011;42705;50.326;18.772;2024-03-23T14:53:33;3.10;;;0.80;;
56824;SDS011;42705;50.326;18.772;2024-03-23T14:58:56;2.20;;;1.10;;
56824;SDS011;42705;50.326;18.772;2024-03-23T15:04:18;1.80;;;1.00;;
56824;SDS011;42705;50.326;18.772;2024-03-23T15:15:03;4.50;;;2.00;;
56824;SDS011;42705;50.326;18.772;2024-03-23T15:20:25;6.90;;;3.10;;
56824;SDS011;42705;50.326;18.772;2024-03-23T15:26:08;7.20;;;4.10;;
56824;SDS011;42705;50.326;18.772;2024-03-23T15:31:28;10.00;;;4.00;;
56824;SDS011;42705;50.326;18.772;2024-03-23T15:36:53;6.90;;;3.90;;
56824;SDS011;42705;50.326;18.772;2024-03-23T15:42:15;8.80;;;4.30;;
56824;SDS011;42705;50.326;18.772;2024-03-23T15:47:37;10.40;;;5.00;;
56824;SDS011;42705;50.326;18.772;2024-03-23T15:52:59;15.40;;;7.00;;
56824;SDS011;42705;50.326;18.772;2024-03-23T15:58:24;15.80;;;6.80;;
56824;SDS011;42705;50.326;18.772;2024-03-23T16:03:46;13.60;;;5.60;;
56824;SDS011;42705;50.326;18.772;2024-03-23T16:09:08;5.10;;;4.00;;
56824;SDS011;42705;50.326;18.772;2024-03-23T16:14:30;3.70;;;2.60;;
56824;SDS011;42705;50.326;18.772;2024-03-23T16:19:52;3.30;;;2.40;;
56824;SDS011;42705;50.326;18.772;2024-03-23T16:25:15;1.90;;;1.50;;
56824;SDS011;42705;50.326;18.772;2024-03-23T16:30:36;1.50;;;1.20;;
56824;SDS011;42705;50.326;18.772;2024-03-23T16:35:59;1.90;;;1.30;;
56824;SDS011;42705;50.326;18.772;2024-03-23T16:41:26;4.10;;;1.60;;
56824;SDS011;42705;50.326;18.772;2024-03-23T16:46:48;2.30;;;1.40;;
56824;SDS011;42705;50.326;18.772;2024-03-23T16:52:10;2.20;;;1.60;;
56824;SDS011;42705;50.326;18.772;2024-03-23T16:57:32;2.30;;;1.80;;
56824;SDS011;42705;50.326;18.772;2024-03-23T17:02:53;1.70;;;1.50;;
56824;SDS011;42705;50.326;18.772;2024-03-23T17:08:16;2.70;;;1.50;;
56824;SDS011;42705;50.326;18.772;2024-03-23T17:13:38;2.00;;;1.70;;
56824;SDS011;42705;50.326;18.772;2024-03-23T17:19:00;2.60;;;1.80;;
56824;SDS011;42705;50.326;18.772;2024-03-23T17:24:21;3.40;;;2.10;;
56824;SDS011;42705;50.326;18.772;2024-03-23T17:29:43;3.90;;;2.60;;
56824;SDS011;42705;50.326;18.772;2024-03-23T17:35:05;2.60;;;2.30;;
56824;SDS011;42705;50.326;18.772;2024-03-23T17:40:27;3.40;;;2.70;;
56824;SDS011;42705;50.326;18.772;2024-03-23T17:45:49;3.90;;;2.90;;
56824;SDS011;42705;50.326;18.772;2024-03-23T17:51:11;3.40;;;2.90;;
56824;SDS011;42705;50.326;18.772;2024-03-23T17:56:35;2.70;;;2.30;;
56824;SDS011;42705;50.326;18.772;2024-03-23T18:01:57;3.00;;;2.20;;
56824;SDS011;42705;50.326;18.772;2024-03-23T18:07:20;3.10;;;2.70;;
56824;SDS011;42705;50.326;18.772;2024-03-23T18:12:44;3.20;;;2.60;;
56824;SDS011;42705;50.326;18.772;2024-03-23T18:18:10;3.50;;;2.80;;
56824;SDS011;42705;50.326;18.772;2024-03-23T18:23:32;3.30;;;2.60;;
56824;SDS011;42705;50.326;18.772;2024-03-23T18:28:55;3.70;;;3.30;;
56824;SDS011;42705;50.326;18.772;2024-03-23T18:34:17;5.50;;;3.70;;
56824;SDS011;42705;50.326;18.772;2024-03-23T18:39:39;4.50;;;3.60;;
56824;SDS011;42705;50.326;18.772;2024-03-23T18:50:24;3.80;;;3.30;;
56824;SDS011;42705;50.326;18.772;2024-03-23T18:55:54;3.40;;;2.90;;
56824;SDS011;42705;50.326;18.772;2024-03-23T19:01:16;4.00;;;2.70;;
56824;SDS011;42705;50.326;18.772;2024-03-23T19:06:41;3.60;;;2.50;;
56824;SDS011;42705;50.326;18.772;2024-03-23T19:12:05;2.70;;;2.00;;
56824;SDS011;42705;50.326;18.772;2024-03-23T19:17:27;3.70;;;2.50;;
56824;SDS011;42705;50.326;18.772;2024-03-23T19:22:49;3.30;;;2.20;;
56824;SDS011;42705;50.326;18.772;2024-03-23T19:28:10;2.70;;;2.00;;
56824;SDS011;42705;50.326;18.772;2024-03-23T19:38:55;2.90;;;1.90;;
56824;SDS011;42705;50.326;18.772;2024-03-23T19:44:18;1.50;;;1.30;;
56824;SDS011;42705;50.326;18.772;2024-03-23T19:49:40;2.70;;;1.40;;
56824;SDS011;42705;50.326;18.772;2024-03-23T19:55:02;4.50;;;2.50;;
56824;SDS011;42705;50.326;18.772;2024-03-23T20:00:25;3.10;;;1.60;;
56824;SDS011;42705;50.326;18.772;2024-03-23T20:05:57;3.40;;;1.90;;
56824;SDS011;42705;50.326;18.772;2024-03-23T20:11:23;4.10;;;1.90;;
56824;SDS011;42705;50.326;18.772;2024-03-23T20:16:48;3.00;;;1.80;;
56824;SDS011;42705;50.326;18.772;2024-03-23T20:22:10;3.40;;;1.70;;
56824;SDS011;42705;50.326;18.772;2024-03-23T20:27:33;4.80;;;1.60;;
56824;SDS011;42705;50.326;18.772;2024-03-23T20:32:55;3.30;;;1.40;;
56824;SDS011;42705;50.326;18.772;2024-03-23T20:38:17;3.40;;;1.60;;
56824;SDS011;42705;50.326;18.772;2024-03-23T20:43:40;3.50;;;1.60;;
56824;SDS011;42705;50.326;18.772;2024-03-23T20:49:06;5.60;;;2.00;;
56824;SDS011;42705;50.326;18.772;2024-03-23T20:54:28;3.70;;;1.50;;
56824;SDS011;42705;50.326;18.772;2024-03-23T20:59:50;3.90;;;1.50;;
56824;SDS011;42705;50.326;18.772;2024-03-23T21:05:11;4.60;;;1.80;;
56824;SDS011;42705;50.326;18.772;2024-03-23T21:10:33;5.60;;;2.80;;
56824;SDS011;42705;50.326;18.772;2024-03-23T21:15:55;3.60;;;2.00;;
56824;SDS011;42705;50.326;18.772;2024-03-23T21:21:21;5.10;;;2.00;;
56824;SDS011;42705;50.326;18.772;2024-03-23T21:26:43;3.20;;;1.70;;
56824;SDS011;42705;50.326;18.772;2024-03-23T21:32:05;4.30;;;2.00;;
56824;SDS011;42705;50.326;18.772;2024-03-23T21:37:27;3.80;;;1.70;;
56824;SDS011;42705;50.326;18.772;2024-03-23T21:42:49;4.30;;;1.60;;
56824;SDS011;42705;50.326;18.772;2024-03-23T21:48:11;4.60;;;1.80;;
56824;SDS011;42705;50.326;18.772;2024-03-23T21:53:32;4.30;;;1.60;;
56824;SDS011;42705;50.326;18.772;2024-03-23T21:58:59;4.50;;;2.10;;
56824;SDS011;42705;50.326;18.772;2024-03-23T22:04:21;5.40;;;2.10;;
56824;SDS011;42705;50.326;18.772;2024-03-23T22:09:43;5.30;;;2.40;;
56824;SDS011;42705;50.326;18.772;2024-03-23T22:15:05;4.70;;;2.40;;
56824;SDS011;42705;50.326;18.772;2024-03-23T22:20:30;5.70;;;2.50;;
56824;SDS011;42705;50.326;18.772;2024-03-23T22:25:57;7.00;;;3.60;;
56824;SDS011;42705;50.326;18.772;2024-03-23T22:31:21;7.60;;;2.70;;
56824;SDS011;42705;50.326;18.772;2024-03-23T22:36:42;4.60;;;2.00;;
56824;SDS011;42705;50.326;18.772;2024-03-23T22:42:04;4.20;;;2.10;;
56824;SDS011;42705;50.326;18.772;2024-03-23T22:47:26;4.50;;;2.40;;
56824;SDS011;42705;50.326;18.772;2024-03-23T22:52:48;5.50;;;1.80;;
56824;SDS011;42705;50.326;18.772;2024-03-23T22:58:10;5.90;;;2.70;;
56824;SDS011;42705;50.326;18.772;2024-03-23T23:03:32;6.70;;;3.30;;
56824;SDS011;42705;50.326;18.772;2024-03-23T23:08:55;5.40;;;3.00;;
56824;SDS011;42705;50.326;18.772;2024-03-23T23:14:16;6.40;;;3.00;;
56824;SDS011;42705;50.326;18.772;2024-03-23T23:19:38;8.10;;;3.40;;
56824;SDS011;42705;50.326;18.772;2024-03-23T23:25:00;9.30;;;4.20;;
56824;SDS011;42705;50.326;18.772;2024-03-23T23:30:22;7.30;;;4.00;;
56824;SDS011;42705;50.326;18.772;2024-03-23T23:35:44;8.90;;;3.80;;
56824;SDS011;42705;50.326;18.772;2024-03-23T23:41:06;12.30;;;5.80;;
56824;SDS011;42705;50.326;18.772;2024-03-23T23:46:28;7.50;;;4.00;;
56824;SDS011;42705;50.326;18.772;2024-03-23T23:51:50;8.90;;;4.00;;
56824;SDS011;42705;50.326;18.772;2024-03-23T23:57:11;11.00;;;4.10;;
